createdAt,value
2018-06-09T00:00:15.383Z,100894.48
2018-06-09T00:02:44.834Z,100895.22
2018-06-09T00:05:14.152Z,100886.33
2018-06-09T00:07:43.413Z,100884.77
2018-06-09T00:10:12.781Z,100879.56
2018-06-09T00:12:42.275Z,100880.72
2018-06-09T00:15:11.521Z,100884.13
2018-06-09T00:17:40.764Z,100882.04
2018-06-09T00:20:10.090Z,100873.95
2018-06-09T00:22:39.393Z,100871.72
2018-06-09T00:25:08.674Z,100876.53
2018-06-09T00:27:37.995Z,100869.02
2018-06-09T00:30:07.296Z,100868.36
2018-06-09T00:32:36.638Z,100869.23
2018-06-09T00:35:06.135Z,100871.77
2018-06-09T00:37:35.649Z,100867.84
2018-06-09T00:40:05.031Z,100869.06
2018-06-09T00:42:34.451Z,100862.93
2018-06-09T00:45:03.783Z,100860.56
2018-06-09T00:47:33.129Z,100860.61
2018-06-09T00:50:02.443Z,100852.97
2018-06-09T00:52:31.921Z,100855.83
2018-06-09T00:55:01.443Z,100855.59
2018-06-09T00:57:30.719Z,100849.66
2018-06-09T01:00:00.015Z,100850.71
2018-06-09T01:02:29.304Z,100849.84
2018-06-09T01:04:58.531Z,100846.48
2018-06-09T01:07:27.939Z,100838.07
2018-06-09T01:09:57.216Z,100843.35
2018-06-09T01:12:26.516Z,100842.45
2018-06-09T01:14:55.841Z,100838.02
2018-06-09T01:17:25.275Z,100839.27
2018-06-09T01:19:54.553Z,100843.49
2018-06-09T01:22:23.893Z,100838.13
2018-06-09T01:24:53.213Z,100839.81
2018-06-09T01:27:22.510Z,100843.41
2018-06-09T01:29:51.835Z,100842.67
2018-06-09T01:32:22.219Z,100846.45
2018-06-09T01:34:51.526Z,100839.68
2018-06-09T01:37:20.755Z,100841.57
2018-06-09T01:39:50.032Z,100843.42
2018-06-09T01:42:19.281Z,100835.73
2018-06-09T01:44:48.623Z,100844.00
2018-06-09T01:47:17.877Z,100850.42
2018-06-09T01:49:47.160Z,100849.84
2018-06-09T01:52:16.413Z,100847.59
2018-06-09T01:54:45.711Z,100843.43
2018-06-09T01:57:15.003Z,100842.11
2018-06-09T01:59:44.274Z,100843.64
2018-06-09T02:02:13.684Z,100846.34
2018-06-09T02:04:43.009Z,100853.52
2018-06-09T02:07:12.397Z,100854.09
2018-06-09T02:09:41.817Z,100845.99
2018-06-09T02:12:11.054Z,100846.16
2018-06-09T02:14:40.442Z,100841.17
2018-06-09T02:17:09.515Z,100843.82
2018-06-09T02:19:38.871Z,100844.56
2018-06-09T02:22:08.286Z,100843.18
2018-06-09T02:24:37.324Z,100847.03
2018-06-09T02:27:06.600Z,100842.68
2018-06-09T02:29:35.881Z,100842.79
2018-06-09T02:32:05.426Z,100849.02
2018-06-09T02:34:34.866Z,100841.58
2018-06-09T02:37:04.279Z,100847.48
2018-06-09T02:39:33.663Z,100855.19
2018-06-09T02:42:02.973Z,100845.49
2018-06-09T02:44:32.299Z,100848.80
2018-06-09T02:47:01.610Z,100848.05
2018-06-09T02:49:30.961Z,100846.90
2018-06-09T02:52:00.297Z,100836.80
2018-06-09T02:54:29.876Z,100835.66
2018-06-09T02:56:58.915Z,100841.13
2018-06-09T02:59:28.198Z,100841.02
2018-06-09T03:01:57.496Z,100843.00
2018-06-09T03:04:26.761Z,100842.15
2018-06-09T03:06:56.018Z,100838.01
2018-06-09T03:09:25.488Z,100843.02
2018-06-09T03:11:54.841Z,100846.20
2018-06-09T03:14:24.133Z,100843.55
2018-06-09T03:16:53.485Z,100846.36
2018-06-09T03:19:22.932Z,100844.94
2018-06-09T03:21:52.227Z,100844.95
2018-06-09T03:24:21.633Z,100845.23
2018-06-09T03:26:51.191Z,100848.53
2018-06-09T03:29:20.517Z,100846.16
2018-06-09T03:31:49.853Z,100856.70
2018-06-09T03:34:19.942Z,100859.36
2018-06-09T03:36:49.260Z,100855.48
2018-06-09T03:39:18.558Z,100855.26
2018-06-09T03:41:47.890Z,100857.14
2018-06-09T03:44:17.153Z,100862.88
2018-06-09T03:46:46.417Z,100861.23
2018-06-09T03:49:15.690Z,100866.11
2018-06-09T03:51:44.995Z,100871.38
2018-06-09T03:54:14.359Z,100869.36
2018-06-09T03:56:43.672Z,100865.98
2018-06-09T03:59:12.769Z,100866.24
2018-06-09T04:01:42.022Z,100864.03
2018-06-09T04:04:11.297Z,100861.28
2018-06-09T04:06:40.627Z,100864.50
2018-06-09T04:09:09.888Z,100864.80
2018-06-09T04:11:39.241Z,100872.33
2018-06-09T04:14:08.499Z,100876.20
2018-06-09T04:16:37.784Z,100882.16
2018-06-09T04:19:07.105Z,100881.89
2018-06-09T04:21:36.500Z,100883.96
2018-06-09T04:24:05.858Z,100866.98
2018-06-09T04:26:35.344Z,100873.55
2018-06-09T04:29:04.681Z,100867.40
2018-06-09T04:31:34.095Z,100871.37
2018-06-09T04:34:03.567Z,100865.70
2018-06-09T04:36:33.172Z,100868.91
2018-06-09T04:39:02.683Z,100869.75
2018-06-09T04:41:32.083Z,100865.88
2018-06-09T04:44:01.480Z,100865.98
2018-06-09T04:46:30.779Z,100868.34
2018-06-09T04:49:00.645Z,100867.75
2018-06-09T04:51:30.035Z,100871.82
2018-06-09T04:53:59.300Z,100872.77
2018-06-09T04:56:28.579Z,100874.48
2018-06-09T04:58:57.902Z,100869.77
2018-06-09T05:01:27.389Z,100872.97
2018-06-09T05:03:56.907Z,100868.33
2018-06-09T05:06:26.223Z,100861.31
2018-06-09T05:08:55.633Z,100861.80
2018-06-09T05:11:24.948Z,100864.05
2018-06-09T05:13:54.273Z,100862.73
2018-06-09T05:16:23.553Z,100865.42
2018-06-09T05:18:52.959Z,100868.69
2018-06-09T05:21:22.222Z,100868.83
2018-06-09T05:23:51.520Z,100864.08
2018-06-09T05:26:20.855Z,100862.70
2018-06-09T05:28:50.117Z,100862.33
2018-06-09T05:31:19.462Z,100862.04
2018-06-09T05:33:48.710Z,100862.22
2018-06-09T05:36:18.097Z,100868.45
2018-06-09T05:38:47.498Z,100858.70
2018-06-09T05:41:16.766Z,100863.22
2018-06-09T05:43:46.106Z,100862.06
2018-06-09T05:46:15.459Z,100866.59
2018-06-09T05:48:44.872Z,100861.16
2018-06-09T05:51:14.186Z,100863.41
2018-06-09T05:53:43.499Z,100867.72
2018-06-09T05:56:13.738Z,100870.83
2018-06-09T05:58:43.147Z,100868.43
2018-06-09T06:01:12.532Z,100860.67
2018-06-09T06:03:41.989Z,100868.85
2018-06-09T06:06:11.073Z,100874.64
2018-06-09T06:08:40.409Z,100880.70
2018-06-09T06:11:09.490Z,100876.11
2018-06-09T06:13:38.942Z,100883.88
2018-06-09T06:16:08.182Z,100883.53
2018-06-09T06:18:37.460Z,100886.70
2018-06-09T06:21:06.987Z,100879.67
2018-06-09T06:23:36.299Z,100879.06
2018-06-09T06:26:05.715Z,100885.20
2018-06-09T06:28:35.080Z,100882.41
2018-06-09T06:31:04.479Z,100885.44
2018-06-09T06:33:33.778Z,100881.25
2018-06-09T06:36:03.211Z,100886.08
2018-06-09T06:38:32.714Z,100883.05
2018-06-09T06:41:02.456Z,100883.30
2018-06-09T06:43:31.842Z,100884.26
2018-06-09T06:46:01.361Z,100887.41
2018-06-09T06:48:34.666Z,100889.11
2018-06-09T06:51:04.067Z,100893.82
2018-06-09T06:53:33.590Z,100892.61
2018-06-09T06:56:03.063Z,100899.59
2018-06-09T06:58:32.476Z,100899.09
2018-06-09T07:01:01.881Z,100902.02
2018-06-09T07:03:31.285Z,100898.14
2018-06-09T07:06:02.435Z,100898.87
2018-06-09T07:08:31.906Z,100893.09
2018-06-09T07:11:01.268Z,100896.94
2018-06-09T07:13:30.782Z,100889.33
2018-06-09T07:16:00.096Z,100888.41
2018-06-09T07:18:29.497Z,100886.98
2018-06-09T07:20:58.559Z,100883.23
2018-06-09T07:23:28.008Z,100888.92
2018-06-09T07:25:57.272Z,100890.72
2018-06-09T07:28:26.666Z,100896.70
2018-06-09T07:30:55.927Z,100899.86
2018-06-09T07:33:25.217Z,100895.11
2018-06-09T07:35:54.499Z,100893.52
2018-06-09T07:38:23.911Z,100901.45
2018-06-09T07:40:53.192Z,100902.75
2018-06-09T07:43:22.492Z,100906.79
2018-06-09T07:45:51.789Z,100898.38
2018-06-09T07:48:21.135Z,100897.10
2018-06-09T07:50:50.460Z,100898.02
2018-06-09T07:53:19.805Z,100898.22
2018-06-09T07:55:48.801Z,100903.03
2018-06-09T07:58:18.063Z,100900.57
2018-06-09T08:00:47.445Z,100906.61
2018-06-09T08:03:16.558Z,100901.67
2018-06-09T08:05:45.865Z,100901.70
2018-06-09T08:08:14.983Z,100899.90
2018-06-09T08:10:44.376Z,100899.45
2018-06-09T08:13:13.715Z,100901.51
2018-06-09T08:15:43.098Z,100902.52
2018-06-09T08:18:12.500Z,100899.53
2018-06-09T08:20:41.788Z,100906.23
2018-06-09T08:23:12.476Z,100895.98
2018-06-09T08:25:44.386Z,100895.52
2018-06-09T08:28:13.656Z,100892.05
2018-06-09T08:30:43.865Z,100893.31
2018-06-09T08:33:13.253Z,100899.39
2018-06-09T08:35:47.315Z,100905.02
2018-06-09T08:38:16.678Z,100909.23
2018-06-09T08:40:46.001Z,100912.41
2018-06-09T08:43:15.336Z,100910.77
2018-06-09T08:45:44.615Z,100912.09
2018-06-09T08:48:13.919Z,100906.62
2018-06-09T08:50:43.059Z,100899.91
2018-06-09T08:53:22.685Z,100894.91
2018-06-09T08:55:52.173Z,100894.65
2018-06-09T08:58:21.461Z,100894.14
2018-06-09T09:00:50.894Z,100898.57
2018-06-09T09:03:20.229Z,100889.55
2018-06-09T09:05:49.579Z,100895.53
2018-06-09T09:08:18.699Z,100888.03
2018-06-09T09:10:47.813Z,100893.64
2018-06-09T09:13:17.122Z,100892.67
2018-06-09T09:15:46.437Z,100895.80
2018-06-09T09:18:15.754Z,100898.36
2018-06-09T09:20:45.025Z,100899.13
2018-06-09T09:23:14.415Z,100906.85
2018-06-09T09:25:43.669Z,100902.97
2018-06-09T09:28:12.975Z,100895.18
2018-06-09T09:30:42.389Z,100898.71
2018-06-09T09:33:12.114Z,100896.77
2018-06-09T09:35:41.440Z,100894.21
2018-06-09T09:38:10.781Z,100885.40
2018-06-09T09:40:40.036Z,100888.89
2018-06-09T09:43:09.524Z,100890.45
2018-06-09T09:45:38.859Z,100891.92
2018-06-09T09:48:08.102Z,100888.61
2018-06-09T09:50:37.497Z,100890.29
2018-06-09T09:53:06.871Z,100892.22
2018-06-09T09:55:36.186Z,100890.78
2018-06-09T09:58:07.409Z,100890.29
2018-06-09T10:00:41.596Z,100889.36
2018-06-09T10:03:15.512Z,100886.47
2018-06-09T10:05:46.813Z,100896.10
2018-06-09T10:08:17.647Z,100891.33
2018-06-09T10:10:47.576Z,100893.88
2018-06-09T10:13:16.958Z,100898.45
2018-06-09T10:15:46.266Z,100883.70
2018-06-09T10:18:15.606Z,100882.39
2018-06-09T10:20:44.880Z,100876.12
2018-06-09T10:23:14.986Z,100872.25
2018-06-09T10:25:44.285Z,100875.45
2018-06-09T10:28:13.620Z,100872.14
2018-06-09T10:30:44.224Z,100867.92
2018-06-09T10:33:13.512Z,100865.91
2018-06-09T10:35:43.065Z,100865.59
2018-06-09T10:38:12.364Z,100863.87
2018-06-09T10:40:41.667Z,100859.88
2018-06-09T10:43:10.974Z,100865.81
2018-06-09T10:45:40.364Z,100865.55
2018-06-09T10:48:09.709Z,100867.70
2018-06-09T10:50:39.063Z,100855.27
2018-06-09T10:53:28.515Z,100854.22
2018-06-09T10:55:58.557Z,100853.28
2018-06-09T10:58:27.807Z,100854.10
2018-06-09T11:00:57.158Z,100849.64
2018-06-09T11:03:26.460Z,100845.17
2018-06-09T11:05:55.749Z,100845.34
2018-06-09T11:08:25.129Z,100844.86
2018-06-09T11:10:54.502Z,100847.61
2018-06-09T11:13:23.833Z,100841.69
2018-06-09T11:15:52.898Z,100836.98
2018-06-09T11:18:22.633Z,100839.69
2018-06-09T11:20:51.864Z,100842.14
2018-06-09T11:23:21.243Z,100836.32
2018-06-09T11:25:50.669Z,100838.33
2018-06-09T11:28:20.009Z,100828.72
2018-06-09T11:30:49.263Z,100823.62
2018-06-09T11:33:18.661Z,100825.67
2018-06-09T11:35:48.025Z,100822.11
2018-06-09T11:38:17.449Z,100824.70
2018-06-09T11:40:46.810Z,100819.45
2018-06-09T11:43:16.201Z,100818.48
2018-06-09T11:45:45.472Z,100817.48
2018-06-09T11:54:30.727Z,100811.85
2018-06-09T11:57:00.860Z,100805.24
2018-06-09T11:59:30.269Z,100801.62
2018-06-09T12:01:59.716Z,100798.86
2018-06-09T12:04:29.110Z,100794.88
2018-06-09T12:06:58.623Z,100791.30
2018-06-09T12:09:28.136Z,100794.87
2018-06-09T12:11:57.465Z,100787.58
2018-06-09T12:14:26.955Z,100786.33
2018-06-09T12:16:56.902Z,100778.91
2018-06-09T12:19:26.229Z,100788.14
2018-06-09T12:21:55.733Z,100779.03
2018-06-09T12:24:25.823Z,100778.95
2018-06-09T12:26:55.384Z,100783.18
2018-06-09T12:29:24.987Z,100783.95
2018-06-09T12:31:54.281Z,100780.60
2018-06-09T12:34:23.567Z,100780.88
2018-06-09T12:36:52.946Z,100785.63
2018-06-09T12:39:22.388Z,100781.59
2018-06-09T12:41:51.669Z,100782.58
2018-06-09T12:44:20.790Z,100782.69
2018-06-09T12:46:50.065Z,100781.93
2018-06-09T12:49:19.419Z,100779.73
2018-06-09T12:51:48.435Z,100779.91
2018-06-09T12:54:17.946Z,100779.34
2018-06-09T12:56:47.385Z,100767.52
2018-06-09T12:59:16.639Z,100770.03
2018-06-09T13:01:46.180Z,100770.95
2018-06-09T13:04:15.408Z,100775.48
2018-06-09T13:06:44.550Z,100770.77
2018-06-09T13:09:13.938Z,100770.48
2018-06-09T13:11:43.354Z,100759.88
2018-06-09T13:14:12.606Z,100765.28
2018-06-09T13:16:45.342Z,100760.55
2018-06-09T13:19:15.210Z,100758.89
2018-06-09T13:21:44.752Z,100757.36
2018-06-09T13:24:14.090Z,100746.73
2018-06-09T13:27:05.209Z,100743.48
2018-06-09T13:29:35.338Z,100738.45
2018-06-09T13:32:07.531Z,100735.56
2018-06-09T13:34:41.526Z,100731.43
2018-06-09T13:37:15.236Z,100725.74
2018-06-09T13:39:45.988Z,100726.34
2018-06-09T13:42:17.684Z,100730.38
2018-06-09T13:44:49.117Z,100720.53
2018-06-09T13:47:21.311Z,100718.51
2018-06-09T13:49:50.575Z,100718.14
2018-06-09T13:52:20.052Z,100717.43
2018-06-09T13:54:50.977Z,100707.95
2018-06-09T13:57:22.001Z,100705.66
2018-06-09T13:59:51.438Z,100712.69
2018-06-09T14:02:20.855Z,100711.66
2018-06-09T14:04:51.589Z,100709.14
2018-06-09T14:07:21.255Z,100703.75
2018-06-09T14:14:31.220Z,100700.85
2018-06-09T14:17:00.729Z,100692.83
2018-06-09T14:19:29.774Z,100701.61
2018-06-09T14:21:59.242Z,100695.32
2018-06-09T14:24:28.583Z,100700.68
2018-06-09T14:26:58.217Z,100697.77
2018-06-09T14:29:27.550Z,100698.33
2018-06-09T14:31:56.830Z,100702.48
2018-06-09T14:34:26.159Z,100694.59
2018-06-09T14:36:55.476Z,100685.92
2018-06-09T14:39:24.825Z,100688.66
2018-06-09T14:41:54.172Z,100678.39
2018-06-09T14:44:23.491Z,100687.80
2018-06-09T14:46:52.910Z,100687.05
2018-06-09T14:49:22.190Z,100687.48
2018-06-09T14:51:51.562Z,100681.86
2018-06-09T14:54:20.856Z,100682.47
2018-06-09T14:56:50.263Z,100683.52
2018-06-09T14:59:19.538Z,100681.55
2018-06-09T15:01:48.856Z,100686.17
2018-06-09T15:04:18.153Z,100678.21
2018-06-09T15:06:47.434Z,100685.27
2018-06-09T15:09:16.775Z,100684.92
2018-06-09T15:11:46.069Z,100683.40
2018-06-09T15:14:15.414Z,100684.77
2018-06-09T15:16:44.748Z,100688.11
2018-06-09T15:19:14.103Z,100690.81
2018-06-09T15:21:43.607Z,100685.28
2018-06-09T15:24:19.512Z,100686.66
2018-06-09T15:26:48.975Z,100689.55
2018-06-09T15:29:18.336Z,100695.07
2018-06-09T15:31:48.516Z,100696.06
2018-06-09T15:34:21.828Z,100697.58
2018-06-09T15:36:51.553Z,100693.53
2018-06-09T15:39:21.625Z,100695.23
2018-06-09T15:41:56.612Z,100689.45
2018-06-09T15:44:26.404Z,100690.17
2018-06-09T15:46:55.889Z,100690.73
2018-06-09T15:49:25.182Z,100685.21
2018-06-09T15:52:00.336Z,100686.23
2018-06-09T15:54:31.517Z,100692.34
2018-06-09T15:57:01.642Z,100685.14
2018-06-09T15:59:32.754Z,100684.53
2018-06-09T16:02:02.181Z,100680.95
2018-06-09T16:04:31.930Z,100672.24
2018-06-09T16:07:01.386Z,100677.33
2018-06-09T16:09:30.866Z,100681.22
2018-06-09T16:12:00.143Z,100674.51
2018-06-09T16:14:29.491Z,100674.81
2018-06-09T16:16:58.815Z,100668.31
2018-06-09T16:19:28.217Z,100668.78
2018-06-09T16:21:57.551Z,100671.97
2018-06-09T16:24:27.026Z,100675.59
2018-06-09T16:26:56.415Z,100671.84
2018-06-09T16:29:25.771Z,100670.42
2018-06-09T16:31:55.117Z,100666.23
2018-06-09T16:34:25.017Z,100668.13
2018-06-09T16:36:55.127Z,100664.92
2018-06-09T16:39:25.189Z,100665.69
2018-06-09T16:41:54.531Z,100665.02
2018-06-09T16:44:24.024Z,100669.81
2018-06-09T16:46:58.165Z,100666.55
2018-06-09T16:49:27.829Z,100673.01
2018-06-09T16:51:58.041Z,100673.48
2018-06-09T16:54:27.590Z,100672.02
2018-06-09T16:57:04.186Z,100668.47
2018-06-09T16:59:34.659Z,100675.02
2018-06-09T17:02:05.632Z,100667.42
2018-06-09T17:04:35.609Z,100671.37
2018-06-09T17:07:05.013Z,100672.66
2018-06-09T17:09:35.263Z,100678.59
2018-06-09T17:12:04.658Z,100681.04
2018-06-09T17:14:34.235Z,100682.83
2018-06-09T17:17:08.994Z,100692.45
2018-06-09T17:19:38.596Z,100691.14
2018-06-09T17:22:07.945Z,100691.95
2018-06-09T17:24:37.332Z,100685.31
2018-06-09T17:27:06.612Z,100683.75
2018-06-09T17:29:36.010Z,100693.09
2018-06-09T17:32:05.387Z,100691.36
2018-06-09T17:34:34.764Z,100686.67
2018-06-09T17:37:04.169Z,100686.55
2018-06-09T17:39:33.593Z,100687.84
2018-06-09T17:42:03.053Z,100690.47
2018-06-09T17:44:32.392Z,100685.70
2018-06-09T17:47:02.702Z,100681.77
2018-06-09T17:49:32.505Z,100680.63
2018-06-09T17:52:02.145Z,100672.47
2018-06-09T17:54:31.473Z,100672.47
2018-06-09T17:57:00.793Z,100679.22
2018-06-09T17:59:30.188Z,100678.97
2018-06-09T18:01:59.613Z,100682.80
2018-06-09T18:04:28.879Z,100687.45
2018-06-09T18:06:58.294Z,100686.80
2018-06-09T18:09:27.697Z,100692.91
2018-06-09T18:11:57.066Z,100684.78
2018-06-09T18:14:26.323Z,100678.73
2018-06-09T18:16:55.662Z,100680.51
2018-06-09T18:19:24.980Z,100686.02
2018-06-09T18:21:54.391Z,100686.38
2018-06-09T18:24:23.845Z,100697.33
2018-06-09T18:26:53.388Z,100689.69
2018-06-09T18:29:23.782Z,100686.50
2018-06-09T18:31:54.844Z,100693.91
2018-06-09T18:34:24.099Z,100693.64
2018-06-09T18:36:53.384Z,100688.16
2018-06-09T18:39:22.630Z,100689.86
2018-06-09T18:41:51.911Z,100695.95
2018-06-09T18:44:22.014Z,100700.38
2018-06-09T18:46:51.049Z,100691.04
2018-06-09T18:49:20.316Z,100685.07
2018-06-09T18:51:50.755Z,100691.47
2018-06-09T18:54:20.167Z,100691.64
2018-06-09T18:56:49.445Z,100683.09
2018-06-09T18:59:18.815Z,100688.48
2018-06-09T19:01:48.106Z,100687.16
2018-06-09T19:04:17.359Z,100686.77
2018-06-09T19:06:46.782Z,100689.06
2018-06-09T19:09:15.773Z,100693.48
2018-06-09T19:11:45.112Z,100700.77
2018-06-09T19:14:14.392Z,100698.45
2018-06-09T19:16:43.655Z,100704.69
2018-06-09T19:19:12.955Z,100706.87
2018-06-09T19:21:42.287Z,100711.75
2018-06-09T19:24:11.591Z,100714.91
2018-06-09T19:26:41.114Z,100713.98
2018-06-09T19:29:11.374Z,100721.53
2018-06-09T19:31:41.896Z,100720.09
2018-06-09T19:34:11.188Z,100718.44
2018-06-09T19:36:40.466Z,100726.57
2018-06-09T19:39:09.880Z,100735.41
2018-06-09T19:41:39.493Z,100731.20
2018-06-09T19:44:08.857Z,100736.45
2018-06-09T19:46:38.448Z,100732.38
2018-06-09T19:49:10.827Z,100732.53
2018-06-09T19:51:40.202Z,100744.91
2018-06-09T19:54:12.431Z,100747.75
2018-06-09T19:56:41.901Z,100749.60
2018-06-09T19:59:11.173Z,100750.77
2018-06-09T20:01:40.450Z,100749.21
2018-06-09T20:04:09.746Z,100750.71
2018-06-09T20:06:39.143Z,100749.16
2018-06-09T20:09:09.179Z,100743.05
2018-06-09T20:11:38.415Z,100745.25
2018-06-09T20:14:07.814Z,100747.20
2018-06-09T20:16:37.136Z,100750.73
2018-06-09T20:19:06.546Z,100752.80
2018-06-09T20:21:35.919Z,100759.55
2018-06-09T20:24:05.379Z,100763.45
2018-06-09T20:26:44.922Z,100760.09
2018-06-09T20:29:14.146Z,100757.91
2018-06-09T20:31:43.800Z,100762.37
2018-06-09T20:34:13.059Z,100758.67
2018-06-09T20:36:42.401Z,100761.58
2018-06-09T20:39:11.771Z,100759.29
2018-06-09T20:41:41.232Z,100754.08
2018-06-09T20:44:10.562Z,100765.81
2018-06-09T20:46:39.885Z,100754.47
2018-06-09T20:49:09.232Z,100755.17
2018-06-09T20:51:38.795Z,100755.17
2018-06-09T20:54:08.144Z,100754.70
2018-06-09T20:56:37.625Z,100749.86
2018-06-09T20:59:06.915Z,100741.27
2018-06-09T21:01:36.349Z,100741.17
2018-06-09T21:04:05.808Z,100734.80
2018-06-09T21:06:35.142Z,100731.16
2018-06-09T21:09:06.306Z,100723.80
2018-06-09T21:11:35.836Z,100716.69
2018-06-09T21:14:07.149Z,100720.82
2018-06-09T21:16:36.489Z,100730.60
2018-06-09T21:19:05.925Z,100730.52
2018-06-09T21:21:35.260Z,100729.09
2018-06-09T21:24:04.696Z,100723.65
2018-06-09T21:26:39.312Z,100712.77
2018-06-09T21:29:12.629Z,100719.66
2018-06-09T21:31:45.283Z,100720.33
2018-06-09T21:34:36.106Z,100725.26
2018-06-09T21:37:14.993Z,100725.04
2018-06-09T21:39:50.325Z,100726.52
2018-06-09T21:42:26.067Z,100724.00
2018-06-09T21:44:59.232Z,100723.62
2018-06-09T21:47:29.794Z,100728.13
2018-06-09T21:49:59.522Z,100722.44
2018-06-09T21:52:29.948Z,100724.75
2018-06-09T21:55:00.070Z,100721.59
2018-06-09T21:57:29.656Z,100727.38
2018-06-09T22:00:02.167Z,100736.45
2018-06-09T22:02:38.340Z,100748.64
2018-06-09T22:05:08.798Z,100762.81
2018-06-09T22:07:38.132Z,100776.19
2018-06-09T22:10:08.253Z,100792.13
2018-06-09T22:12:40.370Z,100802.33
2018-06-09T22:15:14.312Z,100820.00
2018-06-09T22:17:44.660Z,100817.90
2018-06-09T22:20:16.682Z,100808.64
2018-06-09T22:22:47.350Z,100813.14
2018-06-09T22:25:22.355Z,100818.70
2018-06-09T22:27:52.338Z,100821.88
2018-06-09T22:30:21.732Z,100819.57
2018-06-09T22:32:51.024Z,100817.66
2018-06-09T22:35:21.441Z,100818.06
2018-06-09T22:37:52.329Z,100814.52
2018-06-09T22:40:21.734Z,100803.38
2018-06-09T22:42:51.023Z,100802.76
2018-06-09T22:45:20.527Z,100807.47
2018-06-09T22:47:49.868Z,100798.49
2018-06-09T22:50:19.135Z,100798.59
2018-06-09T22:52:48.453Z,100786.66
2018-06-09T22:55:19.705Z,100778.34
2018-06-09T22:57:54.221Z,100779.47
2018-06-09T23:00:59.397Z,100786.94
2018-06-09T23:03:28.677Z,100802.19
2018-06-09T23:05:57.951Z,100814.34
2018-06-09T23:08:29.519Z,100823.40
2018-06-09T23:11:01.523Z,100817.41
2018-06-09T23:13:30.903Z,100810.22
2018-06-09T23:16:00.218Z,100815.84
2018-06-09T23:18:29.534Z,100821.01
2018-06-09T23:20:59.348Z,100795.78
2018-06-09T23:23:28.651Z,100789.01
2018-06-09T23:25:57.943Z,100787.41
2018-06-09T23:28:27.343Z,100787.77
2018-06-09T23:30:56.454Z,100787.09
2018-06-09T23:33:25.458Z,100772.41
2018-06-09T23:35:54.528Z,100760.00
2018-06-09T23:38:23.884Z,100757.09
2018-06-09T23:40:53.161Z,100755.01
2018-06-09T23:43:22.461Z,100764.24
2018-06-09T23:45:51.831Z,100760.39
2018-06-09T23:48:21.071Z,100763.11
2018-06-09T23:50:50.463Z,100762.44
2018-06-09T23:53:19.879Z,100764.22
2018-06-09T23:55:49.166Z,100760.47
2018-06-09T23:58:18.506Z,100759.80
